Eagle Lake, Illinois
Current Conditions -  °F | °C
As of 8:35 AM on Thursday 30 Oct 2014 (Local Time) from KIGQ Reporting Station
Clear Clear  
Wind Chill: 34°   Ceiling: Unl
Heat Index: 34°   Visibility: 10mi
Dew Point: 33°   Wind: 0mph
Humidity: 94%   Direction: NA
Pressure: 30.16"   Gusts: NA
Location:  41.3435°N, 87.6008°W
Report Text: KIGQ 301335Z AUTO 00000KT 10SM CLR 01/00 A3016 RMK AO2 T00110003
Loading
Personal Weather Stations






























Interactive Weather Map
Tropical Storm Tracking
New forecast layout! Learn more

10-Day Weather Forecast

Advertisements
Track Severe Weather on mobile